createdAt,value
2019-03-27T00:00:52.838Z,-3.11
2019-03-27T00:01:52.701Z,-3.14
2019-03-27T00:02:52.571Z,-3.10
2019-03-27T00:03:52.428Z,-3.10
2019-03-27T00:04:52.298Z,-3.11
2019-03-27T00:05:52.210Z,-3.08
2019-03-27T00:06:52.027Z,-3.08
2019-03-27T00:07:51.885Z,-3.05
2019-03-27T00:08:51.748Z,-3.22
2019-03-27T00:09:51.616Z,-3.08
2019-03-27T00:10:51.482Z,-3.08
2019-03-27T00:11:51.345Z,-3.04
2019-03-27T00:12:51.207Z,-3.10
2019-03-27T00:13:51.072Z,-3.08
2019-03-27T00:14:50.939Z,-3.08
2019-03-27T00:15:50.799Z,-3.02
2019-03-27T00:16:50.666Z,-3.07
2019-03-27T00:17:50.529Z,-3.08
2019-03-27T00:18:50.405Z,-3.07
2019-03-27T00:19:50.262Z,-3.20
2019-03-27T00:20:50.126Z,-3.18
2019-03-27T00:21:50.423Z,-3.18
2019-03-27T00:22:49.855Z,-3.25
2019-03-27T00:23:49.721Z,-3.29
2019-03-27T00:24:49.585Z,-3.25
2019-03-27T00:25:49.448Z,-3.23
2019-03-27T00:26:49.312Z,-3.26
2019-03-27T00:27:49.174Z,-3.18
2019-03-27T00:28:49.045Z,-3.22
2019-03-27T00:29:48.909Z,-3.17
2019-03-27T00:30:48.770Z,-3.20
2019-03-27T00:31:48.634Z,-3.10
2019-03-27T00:32:48.498Z,-3.23
2019-03-27T00:33:48.360Z,-3.13
2019-03-27T00:34:48.226Z,-3.25
2019-03-27T00:35:48.090Z,-3.28
2019-03-27T00:36:47.956Z,-3.29
2019-03-27T00:37:47.821Z,-3.29
2019-03-27T00:38:47.684Z,-3.31
2019-03-27T00:39:47.551Z,-3.32
2019-03-27T00:40:47.412Z,-3.43
2019-03-27T00:41:47.283Z,-3.29
2019-03-27T00:42:47.144Z,-3.44
2019-03-27T00:43:47.017Z,-3.35
2019-03-27T00:44:46.873Z,-3.46
2019-03-27T00:45:46.738Z,-3.46
2019-03-27T00:46:46.601Z,-3.44
2019-03-27T00:47:46.468Z,-3.43
2019-03-27T00:48:46.330Z,-3.46
2019-03-27T00:49:46.194Z,-3.39
2019-03-27T00:50:46.438Z,-3.36
2019-03-27T00:51:45.923Z,-3.38
2019-03-27T00:52:45.790Z,-3.35
2019-03-27T00:53:45.653Z,-3.44
2019-03-27T00:54:45.518Z,-3.43
2019-03-27T00:55:45.380Z,-3.38
2019-03-27T00:56:45.311Z,-3.35
2019-03-27T00:57:45.107Z,-3.33
2019-03-27T00:58:44.973Z,-3.39
2019-03-27T00:59:44.835Z,-3.39
2019-03-27T01:00:44.707Z,-3.39
2019-03-27T01:01:44.567Z,-3.41
2019-03-27T01:02:44.468Z,-3.51
2019-03-27T01:03:44.301Z,-3.41
2019-03-27T01:04:44.161Z,-3.46
2019-03-27T01:05:44.020Z,-3.36
2019-03-27T01:06:43.886Z,-3.39
2019-03-27T01:07:43.753Z,-3.38
2019-03-27T01:08:43.620Z,-3.38
2019-03-27T01:09:43.481Z,-3.38
2019-03-27T01:10:43.341Z,-3.35
2019-03-27T01:11:43.213Z,-3.43
2019-03-27T01:12:43.070Z,-3.38
2019-03-27T01:13:42.940Z,-3.41
2019-03-27T01:14:42.802Z,-3.44
2019-03-27T01:15:42.670Z,-3.43
2019-03-27T01:16:42.531Z,-3.36
2019-03-27T01:17:42.393Z,-3.38
2019-03-27T01:18:42.256Z,-3.32
2019-03-27T01:19:42.484Z,-3.39
2019-03-27T01:20:42.008Z,-3.47
2019-03-27T01:21:41.852Z,-3.36
2019-03-27T01:22:41.715Z,-3.32
2019-03-27T01:23:41.578Z,-3.49
2019-03-27T01:24:41.443Z,-3.38
2019-03-27T01:25:41.306Z,-3.43
2019-03-27T01:26:41.169Z,-3.35
2019-03-27T01:27:41.034Z,-3.41
2019-03-27T01:28:40.899Z,-3.36
2019-03-27T01:29:40.761Z,-3.36
2019-03-27T01:30:40.628Z,-3.33
2019-03-27T01:31:40.493Z,-3.29
2019-03-27T01:32:40.359Z,-3.18
2019-03-27T01:33:40.223Z,-3.15
2019-03-27T01:34:40.084Z,-3.22
2019-03-27T01:35:39.951Z,-3.14
2019-03-27T01:36:39.815Z,-3.15
2019-03-27T01:37:39.678Z,-3.25
2019-03-27T01:38:39.542Z,-3.26
2019-03-27T01:39:39.407Z,-3.18
2019-03-27T01:40:39.277Z,-3.25
2019-03-27T01:41:39.135Z,-3.20
2019-03-27T01:42:39.007Z,-3.26
2019-03-27T01:43:38.864Z,-3.10
2019-03-27T01:44:38.731Z,-3.04
2019-03-27T01:45:38.597Z,-3.08
2019-03-27T01:46:38.459Z,-3.13
2019-03-27T01:47:38.328Z,-3.13
2019-03-27T01:48:38.485Z,-3.18
2019-03-27T01:49:38.054Z,-3.10
2019-03-27T01:50:37.919Z,-3.17
2019-03-27T01:51:37.783Z,-3.08
2019-03-27T01:52:37.648Z,-3.00
2019-03-27T01:53:37.512Z,-3.08
2019-03-27T01:54:37.380Z,-3.02
2019-03-27T01:55:37.251Z,-3.10
2019-03-27T01:56:37.157Z,-3.07
2019-03-27T01:57:36.971Z,-3.07
2019-03-27T01:58:36.837Z,-3.07
2019-03-27T01:59:36.700Z,-3.05
2019-03-27T02:00:36.567Z,-3.02
2019-03-27T02:01:36.429Z,-2.97
2019-03-27T02:02:36.299Z,-2.86
2019-03-27T02:03:36.159Z,-2.82
2019-03-27T02:04:36.025Z,-2.89
2019-03-27T02:05:35.891Z,-2.76
2019-03-27T02:06:35.753Z,-2.81
2019-03-27T02:07:35.627Z,-2.63
2019-03-27T02:08:35.487Z,-2.74
2019-03-27T02:09:35.348Z,-2.66
2019-03-27T02:10:35.214Z,-2.64
2019-03-27T02:11:35.076Z,-2.64
2019-03-27T02:12:34.945Z,-2.60
2019-03-27T02:13:34.811Z,-2.64
2019-03-27T02:14:34.677Z,-2.64
2019-03-27T02:15:34.538Z,-2.63
2019-03-27T02:16:34.401Z,-2.74
2019-03-27T02:17:34.497Z,-2.79
2019-03-27T02:18:34.140Z,-2.71
2019-03-27T02:19:34.001Z,-2.72
2019-03-27T02:20:33.875Z,-2.58
2019-03-27T02:21:33.728Z,-2.58
2019-03-27T02:22:33.592Z,-2.68
2019-03-27T02:23:33.458Z,-2.60
2019-03-27T02:24:33.328Z,-2.53
2019-03-27T02:25:33.190Z,-2.57
2019-03-27T02:26:33.053Z,-2.58
2019-03-27T02:27:32.918Z,-2.53
2019-03-27T02:28:32.787Z,-2.53
2019-03-27T02:29:32.649Z,-2.50
2019-03-27T02:30:32.605Z,-2.60
2019-03-27T02:31:32.382Z,-2.53
2019-03-27T02:32:32.249Z,-2.54
2019-03-27T02:33:32.111Z,-2.56
2019-03-27T02:34:31.986Z,-2.51
2019-03-27T02:35:31.847Z,-2.50
2019-03-27T02:36:31.711Z,-2.54
2019-03-27T02:37:31.576Z,-2.50
2019-03-27T02:38:31.443Z,-2.60
2019-03-27T02:39:31.305Z,-2.66
2019-03-27T02:40:31.172Z,-2.63
2019-03-27T02:41:31.041Z,-2.68
2019-03-27T02:42:30.901Z,-2.61
2019-03-27T02:43:30.769Z,-2.63
2019-03-27T02:44:30.638Z,-2.57
2019-03-27T02:45:30.501Z,-2.54
2019-03-27T02:46:30.500Z,-2.57
2019-03-27T02:47:30.229Z,-2.56
2019-03-27T02:48:30.097Z,-2.48
2019-03-27T02:49:29.963Z,-2.47
2019-03-27T02:50:29.825Z,-2.48
2019-03-27T02:51:29.689Z,-2.54
2019-03-27T02:52:29.553Z,-2.48
2019-03-27T02:53:29.420Z,-2.45
2019-03-27T02:54:29.292Z,-2.57
2019-03-27T02:55:29.152Z,-2.53
2019-03-27T02:56:29.019Z,-2.54
2019-03-27T02:57:28.886Z,-2.56
2019-03-27T02:58:28.750Z,-2.53
2019-03-27T02:59:28.613Z,-2.57
2019-03-27T03:00:28.477Z,-2.58
2019-03-27T03:01:28.341Z,-2.61
2019-03-27T03:02:28.207Z,-2.66
2019-03-27T03:03:28.076Z,-2.61
2019-03-27T03:04:27.939Z,-2.61
2019-03-27T03:05:27.812Z,-2.63
2019-03-27T03:06:27.669Z,-2.66
2019-03-27T03:07:27.535Z,-2.72
2019-03-27T03:08:27.530Z,-2.63
2019-03-27T03:09:27.267Z,-2.61
2019-03-27T03:10:27.132Z,-2.61
2019-03-27T03:11:27.004Z,-2.69
2019-03-27T03:12:26.863Z,-2.64
2019-03-27T03:13:26.726Z,-2.71
2019-03-27T03:14:26.591Z,-2.64
2019-03-27T03:15:26.604Z,-2.79
2019-03-27T03:16:41.245Z,-2.78
2019-03-27T03:17:26.188Z,-2.79
2019-03-27T03:18:26.056Z,-2.64
2019-03-27T03:19:25.922Z,-2.69
2019-03-27T03:20:25.784Z,-2.72
2019-03-27T03:21:25.649Z,-2.68
2019-03-27T03:22:25.511Z,-2.64
2019-03-27T03:23:25.382Z,-2.63
2019-03-27T03:24:25.244Z,-2.74
2019-03-27T03:25:25.115Z,-2.76
2019-03-27T03:26:24.971Z,-2.89
2019-03-27T03:27:24.842Z,-2.93
2019-03-27T03:28:24.708Z,-2.96
2019-03-27T03:29:24.568Z,-2.94
2019-03-27T03:30:24.431Z,-2.89
2019-03-27T03:31:24.298Z,-2.81
2019-03-27T03:32:24.165Z,-2.89
2019-03-27T03:33:24.041Z,-2.72
2019-03-27T03:34:23.921Z,-2.85
2019-03-27T03:35:23.759Z,-2.76
2019-03-27T03:36:23.621Z,-2.82
2019-03-27T03:37:23.489Z,-2.71
2019-03-27T03:38:23.350Z,-2.79
2019-03-27T03:39:23.217Z,-2.85
2019-03-27T03:40:23.082Z,-2.78
2019-03-27T03:41:22.954Z,-2.96
2019-03-27T03:42:22.814Z,-3.15
2019-03-27T03:43:22.684Z,-3.13
2019-03-27T03:44:22.614Z,-3.15
2019-03-27T03:45:22.404Z,-3.14
2019-03-27T03:46:22.271Z,-3.15
2019-03-27T03:47:22.136Z,-3.05
2019-03-27T03:48:22.005Z,-3.25
2019-03-27T03:49:21.874Z,-3.17
2019-03-27T03:50:21.748Z,-3.05
2019-03-27T03:51:21.600Z,-3.10
2019-03-27T03:52:21.462Z,-3.10
2019-03-27T03:53:21.325Z,-3.10
2019-03-27T03:54:21.198Z,-3.11
2019-03-27T03:55:21.058Z,-3.07
2019-03-27T03:56:20.923Z,-3.04
2019-03-27T03:57:20.787Z,-2.90
2019-03-27T03:58:20.657Z,-2.81
2019-03-27T03:59:20.581Z,-2.78
2019-03-27T04:00:20.385Z,-2.76
2019-03-27T04:01:20.249Z,-2.78
2019-03-27T04:02:20.116Z,-2.87
2019-03-27T04:03:19.982Z,-2.87
2019-03-27T04:04:19.844Z,-2.87
2019-03-27T04:05:19.707Z,-2.75
2019-03-27T04:06:19.576Z,-2.78
2019-03-27T04:07:19.434Z,-2.81
2019-03-27T04:08:19.301Z,-2.78
2019-03-27T04:09:19.166Z,-2.61
2019-03-27T04:10:19.030Z,-2.64
2019-03-27T04:11:18.897Z,-2.69
2019-03-27T04:12:18.765Z,-2.53
2019-03-27T04:13:18.632Z,-2.54
2019-03-27T04:14:18.498Z,-2.57
2019-03-27T04:15:18.360Z,-2.56
2019-03-27T04:16:18.244Z,-2.51
2019-03-27T04:17:18.211Z,-2.51
2019-03-27T04:18:17.953Z,-2.48
2019-03-27T04:19:17.821Z,-2.63
2019-03-27T04:20:17.685Z,-2.54
2019-03-27T04:21:17.549Z,-2.54
2019-03-27T04:22:17.427Z,-2.60
2019-03-27T04:23:17.283Z,-2.54
2019-03-27T04:24:17.146Z,-2.47
2019-03-27T04:25:17.011Z,-2.54
2019-03-27T04:26:16.880Z,-2.56
2019-03-27T04:27:16.742Z,-2.58
2019-03-27T04:28:16.614Z,-2.69
2019-03-27T04:29:16.477Z,-2.63
2019-03-27T04:30:16.348Z,-2.66
2019-03-27T04:31:16.203Z,-2.64
2019-03-27T04:32:16.070Z,-2.61
2019-03-27T04:33:15.934Z,-2.61
2019-03-27T04:34:15.800Z,-2.60
2019-03-27T04:35:15.670Z,-2.63
2019-03-27T04:36:15.532Z,-2.64
2019-03-27T04:37:15.405Z,-2.79
2019-03-27T04:38:15.261Z,-2.82
2019-03-27T04:39:15.127Z,-2.92
2019-03-27T04:40:14.994Z,-3.05
2019-03-27T04:41:14.858Z,-3.04
2019-03-27T04:42:14.722Z,-3.08
2019-03-27T04:43:14.587Z,-2.96
2019-03-27T04:44:14.451Z,-2.94
2019-03-27T04:45:14.315Z,-2.96
2019-03-27T04:46:14.185Z,-3.00
2019-03-27T04:47:14.047Z,-3.02
2019-03-27T04:48:13.916Z,-3.08
2019-03-27T04:49:13.776Z,-3.05
2019-03-27T04:50:13.644Z,-3.02
2019-03-27T04:51:13.515Z,-3.07
2019-03-27T04:52:13.375Z,-3.00
2019-03-27T04:53:13.239Z,-2.99
2019-03-27T04:54:13.108Z,-2.90
2019-03-27T04:55:12.967Z,-2.90
2019-03-27T04:56:12.832Z,-2.93
2019-03-27T04:57:12.695Z,-2.87
2019-03-27T04:58:12.561Z,-2.89
2019-03-27T04:59:12.431Z,-3.02
2019-03-27T05:00:12.293Z,-3.05
2019-03-27T05:01:12.157Z,-3.05
2019-03-27T05:02:12.023Z,-3.07
2019-03-27T05:03:11.888Z,-3.02
2019-03-27T05:04:11.758Z,-3.04
2019-03-27T05:05:11.630Z,-3.07
2019-03-27T05:06:11.487Z,-3.00
2019-03-27T05:07:13.728Z,-3.05
2019-03-27T05:08:11.212Z,-3.07
2019-03-27T05:09:11.078Z,-3.08
2019-03-27T05:10:10.941Z,-3.10
2019-03-27T05:11:10.808Z,-3.08
2019-03-27T05:12:10.671Z,-3.11
2019-03-27T05:13:10.544Z,-3.11
2019-03-27T05:14:10.402Z,-3.10
2019-03-27T05:15:10.265Z,-2.99
2019-03-27T05:16:10.131Z,-3.11
2019-03-27T05:17:09.994Z,-3.04
2019-03-27T05:18:09.859Z,-3.05
2019-03-27T05:19:09.723Z,-3.07
2019-03-27T05:20:09.591Z,-3.07
2019-03-27T05:21:09.457Z,-3.08
2019-03-27T05:22:09.318Z,-3.11
2019-03-27T05:23:09.183Z,-3.07
2019-03-27T05:24:09.056Z,-3.18
2019-03-27T05:25:08.913Z,-3.10
2019-03-27T05:26:08.778Z,-2.99
2019-03-27T05:27:08.642Z,-3.05
2019-03-27T05:28:08.508Z,-3.02
2019-03-27T05:29:08.371Z,-3.05
2019-03-27T05:30:08.237Z,-2.99
2019-03-27T05:31:08.103Z,-2.96
2019-03-27T05:32:07.971Z,-2.86
2019-03-27T05:33:07.831Z,-2.87
2019-03-27T05:34:07.700Z,-2.76
2019-03-27T05:35:07.561Z,-2.81
2019-03-27T05:36:07.427Z,-2.68
2019-03-27T05:37:07.306Z,-2.61
2019-03-27T05:38:07.161Z,-2.66
2019-03-27T05:39:07.023Z,-2.61
2019-03-27T05:40:06.888Z,-2.56
2019-03-27T05:41:06.754Z,-2.56
2019-03-27T05:42:06.616Z,-2.47
2019-03-27T05:43:06.485Z,-2.48
2019-03-27T05:44:06.350Z,-2.43
2019-03-27T05:45:06.214Z,-2.43
2019-03-27T05:46:06.080Z,-2.32
2019-03-27T05:47:05.948Z,-2.38
2019-03-27T05:48:05.811Z,-2.32
2019-03-27T05:49:05.675Z,-2.29
2019-03-27T05:50:05.539Z,-2.23
2019-03-27T05:51:05.404Z,-2.20
2019-03-27T05:52:05.279Z,-2.20
2019-03-27T05:53:05.138Z,-2.05
2019-03-27T05:54:05.001Z,-2.11
2019-03-27T05:55:04.869Z,-2.11
2019-03-27T05:56:04.734Z,-2.06
2019-03-27T05:57:04.602Z,-2.05
2019-03-27T05:58:04.468Z,-2.02
2019-03-27T05:59:04.330Z,-2.06
2019-03-27T06:00:04.202Z,-2.02
2019-03-27T06:01:04.066Z,-2.13
2019-03-27T06:02:03.932Z,-2.08
2019-03-27T06:03:03.793Z,-2.14
2019-03-27T06:04:03.658Z,-2.29
2019-03-27T06:05:03.528Z,-2.40
2019-03-27T06:06:03.465Z,-2.45
2019-03-27T06:07:03.257Z,-2.57
2019-03-27T06:08:03.121Z,-2.64
2019-03-27T06:09:02.989Z,-2.66
2019-03-27T06:10:02.852Z,-2.69
2019-03-27T06:11:02.723Z,-2.71
2019-03-27T06:12:02.584Z,-2.87
2019-03-27T06:13:02.448Z,-2.90
2019-03-27T06:14:02.319Z,-2.86
2019-03-27T06:15:02.191Z,-2.85
2019-03-27T06:16:02.051Z,-2.96
2019-03-27T06:17:01.922Z,-2.90
2019-03-27T06:18:12.618Z,-2.87
2019-03-27T06:19:01.645Z,-2.92
2019-03-27T06:20:01.509Z,-2.76
2019-03-27T06:21:01.374Z,-2.78
2019-03-27T06:22:01.246Z,-2.72
2019-03-27T06:23:01.105Z,-2.63
2019-03-27T06:24:00.971Z,-2.50
2019-03-27T06:25:00.838Z,-2.26
2019-03-27T06:26:00.702Z,-2.05
2019-03-27T06:27:00.584Z,-1.80
2019-03-27T06:28:00.429Z,-1.62
2019-03-27T06:29:00.296Z,-1.46
2019-03-27T06:30:00.391Z,-1.30
2019-03-27T06:31:00.033Z,-1.17
2019-03-27T06:31:59.893Z,-1.00
2019-03-27T06:32:59.756Z,-0.72
2019-03-27T06:33:59.626Z,-0.70
2019-03-27T06:34:59.490Z,-0.52
2019-03-27T06:35:59.360Z,-0.29
2019-03-27T06:36:59.223Z,-0.30
2019-03-27T06:37:59.096Z,-0.26
2019-03-27T06:38:58.954Z,-0.19
2019-03-27T06:39:58.822Z,-0.39
2019-03-27T06:40:58.685Z,-0.48
2019-03-27T06:41:58.551Z,-0.47
2019-03-27T06:42:58.420Z,-0.54
2019-03-27T06:43:58.289Z,-0.42
2019-03-27T06:44:58.149Z,-0.50
2019-03-27T06:45:58.464Z,-0.48
2019-03-27T06:46:57.881Z,-0.65
2019-03-27T06:47:57.769Z,-0.60
2019-03-27T06:48:57.614Z,-0.51
2019-03-27T06:49:57.485Z,-0.39
2019-03-27T06:50:57.351Z,-0.30
2019-03-27T06:51:57.218Z,-0.26
2019-03-27T06:52:57.094Z,-0.29
2019-03-27T06:53:56.946Z,-0.31
2019-03-27T06:54:56.813Z,-0.18
2019-03-27T06:55:56.680Z,-0.23
2019-03-27T06:56:56.545Z,-0.22
2019-03-27T06:57:56.412Z,-0.31
2019-03-27T06:58:56.281Z,-0.36
2019-03-27T06:59:56.147Z,-0.48
2019-03-27T07:00:56.014Z,-0.37
2019-03-27T07:01:55.880Z,-0.37
2019-03-27T07:02:55.744Z,-0.45
2019-03-27T07:04:09.560Z,-0.36
2019-03-27T07:04:55.477Z,-0.19
2019-03-27T07:05:55.347Z,-0.22
2019-03-27T07:06:55.211Z,-0.24
2019-03-27T07:07:55.079Z,-0.27
2019-03-27T07:08:54.945Z,-0.27
2019-03-27T07:09:54.810Z,-0.26
2019-03-27T07:10:54.679Z,-0.36
2019-03-27T07:11:54.544Z,-0.34
2019-03-27T07:12:54.415Z,-0.22
2019-03-27T07:13:54.277Z,-0.22
2019-03-27T07:14:54.146Z,-0.30
2019-03-27T07:15:54.052Z,-0.19
2019-03-27T07:16:53.882Z,0.00
2019-03-27T07:17:53.747Z,0.30
2019-03-27T07:18:53.612Z,0.60
2019-03-27T07:19:53.480Z,0.75
2019-03-27T07:20:53.347Z,0.96
2019-03-27T07:21:53.210Z,0.89
2019-03-27T07:22:53.079Z,0.94
2019-03-27T07:23:52.945Z,0.88
2019-03-27T07:24:52.816Z,0.92
2019-03-27T07:25:52.681Z,1.16
2019-03-27T07:26:52.548Z,1.43
2019-03-27T07:27:52.423Z,1.52
2019-03-27T07:28:52.283Z,1.39
2019-03-27T07:29:52.149Z,1.51
2019-03-27T07:30:52.021Z,1.61
2019-03-27T07:31:51.889Z,1.47
2019-03-27T07:32:51.754Z,1.40
2019-03-27T07:33:51.622Z,1.19
2019-03-27T07:34:51.489Z,1.15
2019-03-27T07:35:51.360Z,1.24
2019-03-27T07:36:51.224Z,1.44
2019-03-27T07:37:51.099Z,1.39
2019-03-27T07:38:50.963Z,1.37
2019-03-27T07:39:50.830Z,1.43
2019-03-27T07:40:50.698Z,1.51
2019-03-27T07:41:50.566Z,1.22
2019-03-27T07:42:50.432Z,1.16
2019-03-27T07:43:50.304Z,1.25
2019-03-27T07:44:50.174Z,1.51
2019-03-27T07:45:50.038Z,1.78
2019-03-27T07:46:49.911Z,1.89
2019-03-27T07:47:49.797Z,2.02
2019-03-27T07:48:54.269Z,1.97
2019-03-27T07:49:49.509Z,1.85
2019-03-27T07:50:49.378Z,1.65
2019-03-27T07:51:49.246Z,1.42
2019-03-27T07:52:49.115Z,1.29
2019-03-27T07:53:48.985Z,1.42
2019-03-27T07:54:48.853Z,1.42
2019-03-27T07:55:48.719Z,1.44
2019-03-27T07:56:48.589Z,1.40
2019-03-27T07:57:48.459Z,1.50
2019-03-27T07:58:48.326Z,1.62
2019-03-27T07:59:48.194Z,1.64
2019-03-27T08:00:48.062Z,1.73
2019-03-27T08:01:47.929Z,1.54
2019-03-27T08:02:47.797Z,1.51
2019-03-27T08:03:47.670Z,1.62
2019-03-27T08:04:47.539Z,1.89
2019-03-27T08:05:47.405Z,1.82
2019-03-27T08:06:47.272Z,2.09
2019-03-27T08:07:47.144Z,2.16
2019-03-27T08:08:47.015Z,2.52
2019-03-27T08:09:46.878Z,2.66
2019-03-27T08:10:46.744Z,2.63
2019-03-27T08:11:46.621Z,2.66
2019-03-27T08:12:46.531Z,2.76
2019-03-27T08:13:46.352Z,2.92
2019-03-27T08:14:46.223Z,2.89
2019-03-27T08:15:46.091Z,3.03
2019-03-27T08:16:45.959Z,3.00
2019-03-27T08:17:45.828Z,3.21
2019-03-27T08:18:45.702Z,2.81
2019-03-27T08:19:45.571Z,2.35
2019-03-27T08:20:45.435Z,2.12
2019-03-27T08:21:45.314Z,2.34
2019-03-27T08:22:45.176Z,2.51
2019-03-27T08:23:45.044Z,2.63
2019-03-27T08:24:44.929Z,2.81
2019-03-27T08:25:44.782Z,2.84
2019-03-27T08:26:44.652Z,2.87
2019-03-27T08:27:44.522Z,2.84
2019-03-27T08:28:44.390Z,2.98
2019-03-27T08:29:44.260Z,2.69
2019-03-27T08:30:44.129Z,3.18
2019-03-27T08:31:43.998Z,3.34
2019-03-27T08:32:43.869Z,3.62
2019-03-27T08:33:43.738Z,3.61
2019-03-27T08:34:43.607Z,3.76
2019-03-27T08:35:43.478Z,3.64
2019-03-27T08:36:43.349Z,3.52
2019-03-27T08:37:43.218Z,3.67
2019-03-27T08:38:43.084Z,3.90
2019-03-27T08:39:42.955Z,3.80
2019-03-27T08:40:42.825Z,3.85
2019-03-27T08:41:42.695Z,4.03
2019-03-27T08:42:42.567Z,4.16
2019-03-27T08:43:42.439Z,4.21
2019-03-27T08:44:42.307Z,4.08
2019-03-27T08:45:42.175Z,4.06
2019-03-27T08:46:42.044Z,4.44
2019-03-27T08:47:41.917Z,4.47
2019-03-27T08:48:41.786Z,4.37
2019-03-27T08:49:41.656Z,4.52
2019-03-27T08:50:41.534Z,4.51
2019-03-27T08:51:41.400Z,4.25
2019-03-27T08:52:41.268Z,4.33
2019-03-27T08:53:41.137Z,4.40
2019-03-27T08:54:41.014Z,4.57
2019-03-27T08:55:40.885Z,4.44
2019-03-27T08:56:40.755Z,4.86
2019-03-27T08:57:40.624Z,4.89
2019-03-27T08:58:40.500Z,4.62
2019-03-27T08:59:40.366Z,4.06
2019-03-27T09:00:40.236Z,4.12
2019-03-27T09:01:40.113Z,4.40
2019-03-27T09:02:39.980Z,4.59
2019-03-27T09:03:39.855Z,4.67
2019-03-27T09:04:39.721Z,5.02
2019-03-27T09:05:39.590Z,4.91
2019-03-27T09:06:39.464Z,5.02
2019-03-27T09:07:39.336Z,4.62
2019-03-27T09:08:39.204Z,4.75
2019-03-27T09:09:39.083Z,4.83
2019-03-27T09:10:38.947Z,4.73
2019-03-27T09:11:38.821Z,5.01
2019-03-27T09:12:38.691Z,5.32
2019-03-27T09:13:38.563Z,5.12
2019-03-27T09:14:38.432Z,5.13
2019-03-27T09:15:38.307Z,5.13
2019-03-27T09:16:38.178Z,5.25
2019-03-27T09:17:38.132Z,5.09
2019-03-27T09:18:37.921Z,5.12
2019-03-27T09:19:37.797Z,5.60
2019-03-27T09:20:37.662Z,5.53
2019-03-27T09:21:37.534Z,5.68
2019-03-27T09:22:37.405Z,5.40
2019-03-27T09:23:37.285Z,5.32
2019-03-27T09:24:37.148Z,5.14
2019-03-27T09:25:37.023Z,5.43
2019-03-27T09:26:38.785Z,5.78
2019-03-27T09:27:36.773Z,5.93
2019-03-27T09:28:36.639Z,6.13
2019-03-27T09:29:36.511Z,6.18
2019-03-27T09:30:36.388Z,6.13
2019-03-27T09:31:44.607Z,6.10
2019-03-27T09:32:36.929Z,5.68
2019-03-27T09:33:35.999Z,5.93
2019-03-27T09:34:35.875Z,6.10
2019-03-27T09:35:35.747Z,5.82
2019-03-27T09:36:35.612Z,5.75
2019-03-27T09:37:35.483Z,6.07
2019-03-27T09:38:35.357Z,6.11
2019-03-27T09:39:35.230Z,6.38
2019-03-27T09:40:35.102Z,6.47
2019-03-27T09:41:34.974Z,6.58
2019-03-27T09:42:34.845Z,6.80
2019-03-27T09:43:34.718Z,6.77
2019-03-27T09:44:34.597Z,6.47
2019-03-27T09:45:34.463Z,6.54
2019-03-27T09:46:34.341Z,6.59
2019-03-27T09:47:34.737Z,6.51
2019-03-27T09:48:34.082Z,6.41
2019-03-27T09:49:33.954Z,6.61
2019-03-27T09:50:33.829Z,6.91
2019-03-27T09:51:33.704Z,7.23
2019-03-27T09:52:33.578Z,7.44
2019-03-27T09:53:33.443Z,7.35
2019-03-27T09:54:33.326Z,6.86
2019-03-27T09:55:33.194Z,6.95
2019-03-27T09:56:33.061Z,7.55
2019-03-27T09:57:32.940Z,7.63
2019-03-27T09:58:32.824Z,6.84
2019-03-27T09:59:32.685Z,6.59
2019-03-27T10:00:32.557Z,6.50
2019-03-27T10:01:32.946Z,6.51
2019-03-27T10:02:32.311Z,6.32
2019-03-27T10:03:32.172Z,6.35
2019-03-27T10:04:32.045Z,6.89
2019-03-27T10:05:31.919Z,7.50
2019-03-27T10:06:31.793Z,6.86
2019-03-27T10:07:31.670Z,6.79
2019-03-27T10:08:31.536Z,6.94
2019-03-27T10:09:31.409Z,6.94
2019-03-27T10:10:31.282Z,7.34
2019-03-27T10:11:31.157Z,7.71
2019-03-27T10:12:31.032Z,7.90
2019-03-27T10:13:30.903Z,7.96
2019-03-27T10:14:30.777Z,8.02
2019-03-27T10:15:30.652Z,7.99
2019-03-27T10:16:30.520Z,7.81
2019-03-27T10:17:30.397Z,7.45
2019-03-27T10:18:30.270Z,7.05
2019-03-27T10:19:30.142Z,7.13
2019-03-27T10:20:30.019Z,7.60
2019-03-27T10:21:29.887Z,7.79
2019-03-27T10:22:29.762Z,7.55
2019-03-27T10:23:29.638Z,7.24
2019-03-27T10:24:29.506Z,7.12
2019-03-27T10:25:29.380Z,7.27
2019-03-27T10:26:29.250Z,7.42
2019-03-27T10:27:29.131Z,7.87
2019-03-27T10:28:28.997Z,7.87
2019-03-27T10:29:28.875Z,7.56
2019-03-27T10:30:28.947Z,7.31
2019-03-27T10:31:28.637Z,7.63
2019-03-27T10:32:28.532Z,7.92
2019-03-27T10:33:28.364Z,7.92
2019-03-27T10:34:28.240Z,7.94
2019-03-27T10:35:28.112Z,8.22
2019-03-27T10:36:27.988Z,8.17
2019-03-27T10:37:27.859Z,8.63
2019-03-27T10:38:27.731Z,8.48
2019-03-27T10:39:27.605Z,8.40
2019-03-27T10:40:27.488Z,8.60
2019-03-27T10:41:27.357Z,8.18
2019-03-27T10:42:27.229Z,8.12
2019-03-27T10:43:27.106Z,8.25
2019-03-27T10:44:26.978Z,8.15
2019-03-27T10:45:26.850Z,8.58
2019-03-27T10:46:26.726Z,8.91
2019-03-27T10:47:26.600Z,9.05
2019-03-27T10:48:26.472Z,8.84
2019-03-27T10:49:26.353Z,8.58
2019-03-27T10:50:26.228Z,8.75
2019-03-27T10:51:26.096Z,8.63
2019-03-27T10:52:25.971Z,8.32
2019-03-27T10:53:25.847Z,8.17
2019-03-27T10:54:25.728Z,8.47
2019-03-27T10:55:25.593Z,8.40
2019-03-27T10:56:25.469Z,8.65
2019-03-27T10:57:25.344Z,9.23
2019-03-27T10:58:25.229Z,8.79
2019-03-27T10:59:25.096Z,9.28
2019-03-27T11:00:24.965Z,8.96
2019-03-27T11:01:24.841Z,8.87
2019-03-27T11:02:24.717Z,8.57
2019-03-27T11:03:24.589Z,8.04
2019-03-27T11:04:24.462Z,8.00
2019-03-27T11:05:24.336Z,8.51
2019-03-27T11:06:24.212Z,8.97
2019-03-27T11:07:24.086Z,9.25
2019-03-27T11:08:23.959Z,9.50
2019-03-27T11:09:23.836Z,9.40
2019-03-27T11:10:23.710Z,9.42
2019-03-27T11:11:23.587Z,9.39
2019-03-27T11:12:23.456Z,9.81
2019-03-27T11:13:23.333Z,10.39
2019-03-27T11:14:36.840Z,10.62
2019-03-27T11:15:23.085Z,10.28
2019-03-27T11:16:22.958Z,9.71
2019-03-27T11:17:22.835Z,9.94
2019-03-27T11:18:22.709Z,10.14
2019-03-27T11:19:22.587Z,10.15
2019-03-27T11:20:30.785Z,9.81
2019-03-27T11:21:22.334Z,9.50
2019-03-27T11:22:22.214Z,9.49
2019-03-27T11:23:22.089Z,8.50
2019-03-27T11:24:21.966Z,7.78
2019-03-27T11:25:21.845Z,7.47
2019-03-27T11:26:21.716Z,7.58
2019-03-27T11:27:21.586Z,7.01
2019-03-27T11:28:21.461Z,7.02
2019-03-27T11:29:21.337Z,7.12
2019-03-27T11:30:21.212Z,8.00
2019-03-27T11:31:21.085Z,8.32
2019-03-27T11:32:20.958Z,8.36
2019-03-27T11:33:20.836Z,7.66
2019-03-27T11:34:20.711Z,7.34
2019-03-27T11:35:20.582Z,7.35
2019-03-27T11:36:20.459Z,7.71
2019-03-27T11:37:20.333Z,7.74
2019-03-27T11:38:20.207Z,7.58
2019-03-27T11:39:20.083Z,7.27
2019-03-27T11:40:19.957Z,7.12
2019-03-27T11:41:19.830Z,7.13
2019-03-27T11:42:19.701Z,7.60
2019-03-27T11:43:19.574Z,7.92
2019-03-27T11:44:19.451Z,8.07
2019-03-27T11:45:19.323Z,8.07
2019-03-27T11:46:19.200Z,8.47
2019-03-27T11:47:19.072Z,8.51
2019-03-27T11:48:18.948Z,7.89
2019-03-27T11:49:18.818Z,7.97
2019-03-27T11:50:18.694Z,8.02
2019-03-27T11:51:18.569Z,7.81
2019-03-27T11:52:18.450Z,7.20
2019-03-27T11:53:18.316Z,7.13
2019-03-27T11:54:18.190Z,7.38
2019-03-27T11:55:18.066Z,7.31
2019-03-27T11:56:17.937Z,7.62
2019-03-27T11:57:17.811Z,7.75
2019-03-27T11:58:17.685Z,7.96
2019-03-27T11:59:17.563Z,8.14
2019-03-27T12:00:17.431Z,8.28
2019-03-27T12:01:17.305Z,7.94
2019-03-27T12:02:17.177Z,7.93
2019-03-27T12:03:17.061Z,7.82
2019-03-27T12:04:18.827Z,7.89
2019-03-27T12:05:16.800Z,7.90
2019-03-27T12:06:16.673Z,7.56
2019-03-27T12:07:16.556Z,7.29
2019-03-27T12:08:16.421Z,7.37
2019-03-27T12:09:16.296Z,7.29
2019-03-27T12:10:16.169Z,7.13
2019-03-27T12:11:16.040Z,7.32
2019-03-27T12:12:15.914Z,7.17
2019-03-27T12:13:15.788Z,6.77
2019-03-27T12:14:15.659Z,6.68
2019-03-27T12:15:15.530Z,6.69
2019-03-27T12:16:15.409Z,6.48
2019-03-27T12:17:16.827Z,6.50
2019-03-27T12:18:15.151Z,6.63
2019-03-27T12:19:15.031Z,6.73
2019-03-27T12:20:14.897Z,6.99
2019-03-27T12:21:14.771Z,7.05
2019-03-27T12:22:14.644Z,7.37
2019-03-27T12:23:14.514Z,7.67
2019-03-27T12:24:14.390Z,7.93
2019-03-27T12:25:14.273Z,8.11
2019-03-27T12:26:14.138Z,7.82
2019-03-27T12:27:14.993Z,7.49
2019-03-27T12:28:13.878Z,7.13
2019-03-27T12:29:13.758Z,7.04
2019-03-27T12:30:13.628Z,7.02
2019-03-27T12:31:13.508Z,7.13
2019-03-27T12:32:13.370Z,7.13
2019-03-27T12:33:13.244Z,6.79
2019-03-27T12:34:13.117Z,6.51
2019-03-27T12:35:12.997Z,6.33
2019-03-27T12:36:12.865Z,6.43
2019-03-27T12:37:12.735Z,6.48
2019-03-27T12:38:12.608Z,6.76
2019-03-27T12:39:12.478Z,6.87
2019-03-27T12:40:12.352Z,7.16
2019-03-27T12:41:12.225Z,6.89
2019-03-27T12:42:12.104Z,6.62
2019-03-27T12:43:11.971Z,6.48
2019-03-27T12:44:11.842Z,6.43
2019-03-27T12:45:11.718Z,6.58
2019-03-27T12:46:11.585Z,6.61
2019-03-27T12:47:11.460Z,6.47
2019-03-27T12:48:11.330Z,6.40
2019-03-27T12:49:11.202Z,6.58
2019-03-27T12:50:11.080Z,6.47
2019-03-27T12:51:13.081Z,6.50
2019-03-27T12:52:10.829Z,6.56
2019-03-27T12:53:10.691Z,6.53
2019-03-27T12:54:10.564Z,6.61
2019-03-27T12:55:10.436Z,6.76
2019-03-27T12:56:11.027Z,6.79
2019-03-27T12:57:10.182Z,6.40
2019-03-27T12:58:11.699Z,6.22
2019-03-27T12:59:09.927Z,6.35
2019-03-27T13:00:09.801Z,6.10
2019-03-27T13:01:09.680Z,6.11
2019-03-27T13:02:09.546Z,6.07